Puerto la Cruz, Venezuela
Current Conditions -  °F | °C
As of 11:00 PM on Thursday 18 Dec 2014 (Local Time) from SVBC Reporting Station
Few Clouds Few Clouds  
Wind Chill: 81°   Ceiling: Unl
Heat Index: 85°   Visibility: 6mi
Dew Point: 73°   Wind: 0mph
Humidity: 79%   Direction: NA
Pressure: 29.88"   Gusts: NA
Location:  10.17°N, 64.68°W
Report Text: SVBC 190300Z 00000KT 9999 FEW010 27/23 Q1012
Loading
Personal Weather Stations






























Interactive Weather Map New forecast layout! Learn more

10-Day Weather Forecast

Advertisements
Track Severe Weather on mobile